createdAt,value
2023-03-04T00:02:24.835Z,3.1
2023-03-04T00:16:18.834Z,3.2
2023-03-04T00:21:42.378Z,3.2
2023-03-04T00:38:16.562Z,3.4
2023-03-04T00:52:42.465Z,3.3
2023-03-04T00:58:40.719Z,3.5
2023-03-04T01:15:31.514Z,3.4
2023-03-04T01:22:46.985Z,3.6
2023-03-04T01:35:36.730Z,2.9
2023-03-04T01:48:32.582Z,2.7
2023-03-04T02:04:46.837Z,3.1
2023-03-04T02:06:52.411Z,2.9
2023-03-04T02:12:12.697Z,2.5
2023-03-04T02:19:19.307Z,2.1
2023-03-04T02:35:37.783Z,1.9
2023-03-04T02:43:27.840Z,1.5
2023-03-04T02:48:34.932Z,1.4
2023-03-04T03:02:37.700Z,1.2
2023-03-04T03:17:18.524Z,1.3
2023-03-04T03:31:19.234Z,1.5
2023-03-04T03:51:33.764Z,1.7
2023-03-04T03:59:09.821Z,1.7
2023-03-04T04:08:27.284Z,1.7
2023-03-04T04:13:09.734Z,1.5
2023-03-04T04:20:41.239Z,1.4
2023-03-04T04:29:00.227Z,1.0
2023-03-04T04:43:00.388Z,0.8
2023-03-04T04:57:00.206Z,0.8
2023-03-04T05:03:35.915Z,1.0
2023-03-04T05:19:43.533Z,1.6
2023-03-04T05:26:15.083Z,1.6
2023-03-04T05:32:32.465Z,1.7
2023-03-04T05:40:31.354Z,1.7
2023-03-04T05:55:31.204Z,1.2
2023-03-04T06:02:07.024Z,1.3
2023-03-04T06:07:00.622Z,1.5
2023-03-04T06:11:48.392Z,1.5
2023-03-04T06:26:48.207Z,1.5
2023-03-04T06:37:27.114Z,1.5
2023-03-04T06:41:16.643Z,1.6
2023-03-04T06:51:47.474Z,2.0
2023-03-04T07:08:32.374Z,3.0
2023-03-04T07:23:00.674Z,3.2
2023-03-04T07:39:12.241Z,5.7
2023-03-04T07:43:27.988Z,7.0
2023-03-04T07:57:56.873Z,11.8
2023-03-04T08:12:56.914Z,12.6
2023-03-04T08:21:23.322Z,13.2
2023-03-04T08:36:23.323Z,13.7
2023-03-04T08:51:23.344Z,13.6
2023-03-04T09:02:53.429Z,14.5
2023-03-04T09:05:41.000Z,14.7
2023-03-04T09:10:06.796Z,14.4
2023-03-04T09:17:25.591Z,14.6
2023-03-04T09:28:59.609Z,14.4
2023-03-04T09:44:00.256Z,14.7
2023-03-04T10:04:10.984Z,15.4
2023-03-04T10:14:28.831Z,15.5
2023-03-04T10:29:28.749Z,15.5
2023-03-04T10:43:33.521Z,15.3
2023-03-04T10:54:56.102Z,15.4
2023-03-04T11:07:28.301Z,15.1
2023-03-04T11:22:28.130Z,14.6
2023-03-04T11:30:47.947Z,15.2
2023-03-04T11:43:10.356Z,15.3
2023-03-04T11:53:41.282Z,15.6
2023-03-04T12:08:41.112Z,15.6
2023-03-04T12:24:41.893Z,16.0
2023-03-04T12:35:20.685Z,15.9
2023-03-04T12:43:46.122Z,16.3
2023-03-04T12:58:46.082Z,16.4
2023-03-04T13:05:41.692Z,16.7
2023-03-04T13:24:09.934Z,16.9
2023-03-04T13:28:49.081Z,17.2
2023-03-04T13:43:46.419Z,16.6
2023-03-04T13:58:45.950Z,17.0
2023-03-04T14:05:42.413Z,16.6
2023-03-04T14:10:33.721Z,16.5
2023-03-04T14:25:36.208Z,16.8
2023-03-04T14:35:33.434Z,17.5
2023-03-04T14:46:23.173Z,17.7
2023-03-04T15:01:23.726Z,17.4
2023-03-04T15:10:32.065Z,16.6
2023-03-04T15:18:34.834Z,16.4
2023-03-04T15:30:40.799Z,16.4
2023-03-04T15:39:35.607Z,16.6
2023-03-04T15:41:26.758Z,16.6
2023-03-04T15:56:25.527Z,15.9
2023-03-04T16:12:25.549Z,15.1
2023-03-04T16:16:18.611Z,14.7
2023-03-04T16:33:13.728Z,12.8
2023-03-04T16:51:56.601Z,11.1
2023-03-04T17:06:56.541Z,9.2
2023-03-04T17:10:42.695Z,8.9
2023-03-04T17:20:25.677Z,8.2
2023-03-04T17:36:23.877Z,7.9
2023-03-04T17:45:14.306Z,7.4
2023-03-04T17:59:14.209Z,6.6
2023-03-04T18:09:14.870Z,6.3
2023-03-04T18:18:44.955Z,5.9
2023-03-04T18:32:51.664Z,5.7
2023-03-04T18:42:44.874Z,5.9
2023-03-04T18:49:55.889Z,5.7
2023-03-04T19:03:55.791Z,5.0
2023-03-04T19:11:22.671Z,4.8
2023-03-04T19:15:32.595Z,4.5
2023-03-04T19:29:32.539Z,5.0
2023-03-04T19:43:32.642Z,4.6
2023-03-04T19:49:37.384Z,4.4
2023-03-04T20:02:41.024Z,4.2
2023-03-04T20:08:24.405Z,4.2
2023-03-04T20:16:24.734Z,4.3
2023-03-04T20:20:44.843Z,4.1
2023-03-04T20:25:20.549Z,4.2
2023-03-04T20:36:58.906Z,4.0
2023-03-04T20:49:38.545Z,3.9
2023-03-04T20:54:55.747Z,3.7
2023-03-04T21:10:11.362Z,3.9
2023-03-04T21:14:56.430Z,3.5
2023-03-04T21:19:27.917Z,3.3
2023-03-04T21:23:54.847Z,3.2
2023-03-04T21:33:40.989Z,3.8
2023-03-04T21:40:06.153Z,3.4
2023-03-04T21:50:49.528Z,3.0
2023-03-04T22:04:49.694Z,3.3
2023-03-04T22:18:49.737Z,2.9
2023-03-04T22:24:13.789Z,2.9
2023-03-04T22:28:45.399Z,2.8
2023-03-04T22:42:45.410Z,2.4
2023-03-04T22:48:09.181Z,2.7
2023-03-04T22:52:03.042Z,2.9
2023-03-04T23:11:57.472Z,3.2
2023-03-04T23:18:07.310Z,2.9
2023-03-04T23:22:32.650Z,3.0
2023-03-04T23:29:52.012Z,2.8
2023-03-04T23:40:51.476Z,2.5
2023-03-04T23:47:24.900Z,2.5
2023-03-04T23:53:45.468Z,2.4
